sensor_id;sensor_type;location;lat;lon;timestamp;P1;durP1;ratioP1;P2;durP2;ratioP2
30571;SDS011;17348;50.948;10.696;2022-09-21T00:01:33;4.67;;;2.33;;
30571;SDS011;17348;50.948;10.696;2022-09-21T00:04:36;10.13;;;2.97;;
30571;SDS011;17348;50.948;10.696;2022-09-21T00:07:39;6.80;;;3.13;;
30571;SDS011;17348;50.948;10.696;2022-09-21T00:10:41;6.13;;;3.00;;
30571;SDS011;17348;50.948;10.696;2022-09-21T00:13:43;12.53;;;2.77;;
30571;SDS011;17348;50.948;10.696;2022-09-21T00:16:46;9.80;;;3.27;;
30571;SDS011;17348;50.948;10.696;2022-09-21T00:19:49;11.63;;;3.33;;
30571;SDS011;17348;50.948;10.696;2022-09-21T00:22:52;9.20;;;3.20;;
30571;SDS011;17348;50.948;10.696;2022-09-21T00:26:02;4.37;;;2.60;;
30571;SDS011;17348;50.948;10.696;2022-09-21T00:29:05;5.50;;;2.43;;
30571;SDS011;17348;50.948;10.696;2022-09-21T00:32:08;9.60;;;2.50;;
30571;SDS011;17348;50.948;10.696;2022-09-21T00:35:11;6.53;;;2.50;;
30571;SDS011;17348;50.948;10.696;2022-09-21T00:38:16;4.60;;;2.20;;
30571;SDS011;17348;50.948;10.696;2022-09-21T00:41:18;4.77;;;2.37;;
30571;SDS011;17348;50.948;10.696;2022-09-21T00:44:27;4.37;;;2.30;;
30571;SDS011;17348;50.948;10.696;2022-09-21T00:47:32;4.57;;;2.33;;
30571;SDS011;17348;50.948;10.696;2022-09-21T00:50:41;3.30;;;2.03;;
30571;SDS011;17348;50.948;10.696;2022-09-21T00:53:46;3.30;;;1.83;;
30571;SDS011;17348;50.948;10.696;2022-09-21T00:56:54;2.33;;;1.43;;
30571;SDS011;17348;50.948;10.696;2022-09-21T01:00:00;2.77;;;1.73;;
30571;SDS011;17348;50.948;10.696;2022-09-21T01:03:05;3.03;;;1.77;;
30571;SDS011;17348;50.948;10.696;2022-09-21T01:06:09;3.50;;;2.00;;
30571;SDS011;17348;50.948;10.696;2022-09-21T01:09:12;4.37;;;2.20;;
30571;SDS011;17348;50.948;10.696;2022-09-21T01:12:20;5.60;;;2.30;;
30571;SDS011;17348;50.948;10.696;2022-09-21T01:15:42;7.17;;;2.67;;
30571;SDS011;17348;50.948;10.696;2022-09-21T01:18:52;5.82;;;2.33;;
30571;SDS011;17348;50.948;10.696;2022-09-21T01:22:02;8.87;;;1.87;;
30571;SDS011;17348;50.948;10.696;2022-09-21T01:25:16;4.13;;;1.80;;
30571;SDS011;17348;50.948;10.696;2022-09-21T01:28:30;4.77;;;1.80;;
30571;SDS011;17348;50.948;10.696;2022-09-21T01:31:43;4.93;;;2.00;;
30571;SDS011;17348;50.948;10.696;2022-09-21T01:34:52;3.03;;;2.07;;
30571;SDS011;17348;50.948;10.696;2022-09-21T01:37:58;4.67;;;2.00;;
30571;SDS011;17348;50.948;10.696;2022-09-21T01:41:04;3.50;;;1.70;;
30571;SDS011;17348;50.948;10.696;2022-09-21T01:44:12;3.93;;;2.00;;
30571;SDS011;17348;50.948;10.696;2022-09-21T01:47:20;3.53;;;1.83;;
30571;SDS011;17348;50.948;10.696;2022-09-21T01:50:24;2.40;;;2.20;;
30571;SDS011;17348;50.948;10.696;2022-09-21T01:53:32;3.77;;;1.90;;
30571;SDS011;17348;50.948;10.696;2022-09-21T01:56:38;5.57;;;1.73;;
30571;SDS011;17348;50.948;10.696;2022-09-21T01:59:45;5.37;;;2.20;;
30571;SDS011;17348;50.948;10.696;2022-09-21T02:02:54;2.43;;;1.93;;
30571;SDS011;17348;50.948;10.696;2022-09-21T02:06:00;3.93;;;2.07;;
30571;SDS011;17348;50.948;10.696;2022-09-21T02:09:03;6.90;;;1.90;;
30571;SDS011;17348;50.948;10.696;2022-09-21T02:12:08;3.33;;;2.13;;
30571;SDS011;17348;50.948;10.696;2022-09-21T02:15:10;2.67;;;1.67;;
30571;SDS011;17348;50.948;10.696;2022-09-21T02:18:16;3.53;;;1.90;;
30571;SDS011;17348;50.948;10.696;2022-09-21T02:21:31;3.10;;;1.83;;
30571;SDS011;17348;50.948;10.696;2022-09-21T02:24:41;3.37;;;1.90;;
30571;SDS011;17348;50.948;10.696;2022-09-21T02:27:49;4.33;;;2.30;;
30571;SDS011;17348;50.948;10.696;2022-09-21T02:30:56;2.60;;;1.47;;
30571;SDS011;17348;50.948;10.696;2022-09-21T02:34:07;2.00;;;1.53;;
30571;SDS011;17348;50.948;10.696;2022-09-21T02:37:18;5.50;;;2.17;;
30571;SDS011;17348;50.948;10.696;2022-09-21T02:40:26;3.33;;;1.80;;
30571;SDS011;17348;50.948;10.696;2022-09-21T02:43:32;4.57;;;1.87;;
30571;SDS011;17348;50.948;10.696;2022-09-21T02:46:37;4.10;;;2.07;;
30571;SDS011;17348;50.948;10.696;2022-09-21T02:49:45;10.47;;;1.43;;
30571;SDS011;17348;50.948;10.696;2022-09-21T02:52:50;3.63;;;1.80;;
30571;SDS011;17348;50.948;10.696;2022-09-21T02:55:55;10.50;;;2.03;;
30571;SDS011;17348;50.948;10.696;2022-09-21T02:59:03;5.00;;;1.87;;
30571;SDS011;17348;50.948;10.696;2022-09-21T03:02:08;3.97;;;2.17;;
30571;SDS011;17348;50.948;10.696;2022-09-21T03:05:13;3.63;;;1.97;;
30571;SDS011;17348;50.948;10.696;2022-09-21T03:08:16;3.70;;;2.20;;
30571;SDS011;17348;50.948;10.696;2022-09-21T03:11:19;3.03;;;1.60;;
30571;SDS011;17348;50.948;10.696;2022-09-21T03:14:21;5.90;;;1.97;;
30571;SDS011;17348;50.948;10.696;2022-09-21T03:17:23;3.77;;;1.93;;
30571;SDS011;17348;50.948;10.696;2022-09-21T03:20:27;2.93;;;2.10;;
30571;SDS011;17348;50.948;10.696;2022-09-21T03:23:32;3.10;;;2.37;;
30571;SDS011;17348;50.948;10.696;2022-09-21T03:26:34;4.83;;;2.27;;
30571;SDS011;17348;50.948;10.696;2022-09-21T03:29:36;6.70;;;2.63;;
30571;SDS011;17348;50.948;10.696;2022-09-21T03:32:38;4.93;;;2.23;;
30571;SDS011;17348;50.948;10.696;2022-09-21T03:35:42;5.13;;;2.90;;
30571;SDS011;17348;50.948;10.696;2022-09-21T03:38:44;5.10;;;2.57;;
30571;SDS011;17348;50.948;10.696;2022-09-21T03:41:46;5.23;;;2.13;;
30571;SDS011;17348;50.948;10.696;2022-09-21T03:44:48;7.47;;;2.57;;
30571;SDS011;17348;50.948;10.696;2022-09-21T03:47:50;11.47;;;2.20;;
30571;SDS011;17348;50.948;10.696;2022-09-21T03:50:57;3.50;;;1.77;;
30571;SDS011;17348;50.948;10.696;2022-09-21T03:53:59;3.70;;;1.90;;
30571;SDS011;17348;50.948;10.696;2022-09-21T03:57:02;7.90;;;2.43;;
30571;SDS011;17348;50.948;10.696;2022-09-21T04:00:05;2.80;;;1.90;;
30571;SDS011;17348;50.948;10.696;2022-09-21T04:03:09;3.13;;;2.00;;
30571;SDS011;17348;50.948;10.696;2022-09-21T04:06:13;7.20;;;2.07;;
30571;SDS011;17348;50.948;10.696;2022-09-21T04:09:15;4.10;;;2.07;;
30571;SDS011;17348;50.948;10.696;2022-09-21T04:12:19;3.27;;;2.03;;
30571;SDS011;17348;50.948;10.696;2022-09-21T04:15:22;3.93;;;2.27;;
30571;SDS011;17348;50.948;10.696;2022-09-21T04:18:24;2.53;;;1.40;;
30571;SDS011;17348;50.948;10.696;2022-09-21T04:21:28;23.40;;;2.43;;
30571;SDS011;17348;50.948;10.696;2022-09-21T04:24:30;5.63;;;2.00;;
30571;SDS011;17348;50.948;10.696;2022-09-21T04:27:32;39.27;;;2.53;;
30571;SDS011;17348;50.948;10.696;2022-09-21T04:30:35;74.43;;;3.63;;
30571;SDS011;17348;50.948;10.696;2022-09-21T04:33:37;22.57;;;2.57;;
30571;SDS011;17348;50.948;10.696;2022-09-21T04:36:40;4.10;;;1.77;;
30571;SDS011;17348;50.948;10.696;2022-09-21T04:39:43;11.73;;;2.00;;
30571;SDS011;17348;50.948;10.696;2022-09-21T04:42:49;7.63;;;1.37;;
30571;SDS011;17348;50.948;10.696;2022-09-21T04:45:52;3.40;;;1.77;;
30571;SDS011;17348;50.948;10.696;2022-09-21T04:48:55;3.87;;;1.37;;
30571;SDS011;17348;50.948;10.696;2022-09-21T04:51:59;3.40;;;1.67;;
30571;SDS011;17348;50.948;10.696;2022-09-21T04:55:03;3.37;;;1.87;;
30571;SDS011;17348;50.948;10.696;2022-09-21T04:58:05;3.67;;;2.00;;
30571;SDS011;17348;50.948;10.696;2022-09-21T05:01:08;11.30;;;1.67;;
30571;SDS011;17348;50.948;10.696;2022-09-21T05:04:11;7.70;;;2.27;;
30571;SDS011;17348;50.948;10.696;2022-09-21T05:07:14;4.03;;;2.27;;
30571;SDS011;17348;50.948;10.696;2022-09-21T05:10:16;2.83;;;1.53;;
30571;SDS011;17348;50.948;10.696;2022-09-21T05:13:18;2.53;;;1.77;;
30571;SDS011;17348;50.948;10.696;2022-09-21T05:16:20;4.13;;;1.73;;
30571;SDS011;17348;50.948;10.696;2022-09-21T05:19:22;3.37;;;1.60;;
30571;SDS011;17348;50.948;10.696;2022-09-21T05:22:26;2.07;;;1.20;;
30571;SDS011;17348;50.948;10.696;2022-09-21T05:25:28;3.43;;;1.37;;
30571;SDS011;17348;50.948;10.696;2022-09-21T05:28:31;5.43;;;2.00;;
30571;SDS011;17348;50.948;10.696;2022-09-21T05:31:38;4.07;;;1.73;;
30571;SDS011;17348;50.948;10.696;2022-09-21T05:34:46;15.10;;;2.40;;
30571;SDS011;17348;50.948;10.696;2022-09-21T05:37:57;3.53;;;1.48;;
30571;SDS011;17348;50.948;10.696;2022-09-21T05:41:04;5.27;;;2.40;;
30571;SDS011;17348;50.948;10.696;2022-09-21T05:44:08;5.13;;;2.10;;
30571;SDS011;17348;50.948;10.696;2022-09-21T05:47:16;12.47;;;3.23;;
30571;SDS011;17348;50.948;10.696;2022-09-21T05:50:50;12.77;;;4.40;;
30571;SDS011;17348;50.948;10.696;2022-09-21T05:53:59;9.90;;;5.20;;
30571;SDS011;17348;50.948;10.696;2022-09-21T05:57:09;13.77;;;3.88;;
30571;SDS011;17348;50.948;10.696;2022-09-21T06:00:17;14.77;;;4.97;;
30571;SDS011;17348;50.948;10.696;2022-09-21T06:03:24;9.50;;;4.10;;
30571;SDS011;17348;50.948;10.696;2022-09-21T06:06:28;6.43;;;2.80;;
30571;SDS011;17348;50.948;10.696;2022-09-21T06:09:32;7.93;;;3.60;;
30571;SDS011;17348;50.948;10.696;2022-09-21T06:12:34;9.93;;;3.33;;
30571;SDS011;17348;50.948;10.696;2022-09-21T06:15:37;6.87;;;2.80;;
30571;SDS011;17348;50.948;10.696;2022-09-21T06:18:39;5.07;;;2.70;;
30571;SDS011;17348;50.948;10.696;2022-09-21T06:21:42;5.63;;;2.73;;
30571;SDS011;17348;50.948;10.696;2022-09-21T06:24:46;4.13;;;2.40;;
30571;SDS011;17348;50.948;10.696;2022-09-21T06:27:48;4.60;;;2.67;;
30571;SDS011;17348;50.948;10.696;2022-09-21T06:30:51;26.97;;;9.33;;
30571;SDS011;17348;50.948;10.696;2022-09-21T06:33:55;6.17;;;3.10;;
30571;SDS011;17348;50.948;10.696;2022-09-21T06:36:57;3.67;;;2.13;;
30571;SDS011;17348;50.948;10.696;2022-09-21T06:40:01;4.67;;;2.33;;
30571;SDS011;17348;50.948;10.696;2022-09-21T06:43:03;4.43;;;2.23;;
30571;SDS011;17348;50.948;10.696;2022-09-21T06:46:06;5.17;;;1.87;;
30571;SDS011;17348;50.948;10.696;2022-09-21T06:49:08;6.40;;;2.83;;
30571;SDS011;17348;50.948;10.696;2022-09-21T06:52:10;2.37;;;1.87;;
30571;SDS011;17348;50.948;10.696;2022-09-21T06:55:14;9.20;;;3.50;;
30571;SDS011;17348;50.948;10.696;2022-09-21T06:58:16;11.63;;;3.67;;
30571;SDS011;17348;50.948;10.696;2022-09-21T07:01:19;11.40;;;3.73;;
30571;SDS011;17348;50.948;10.696;2022-09-21T07:04:21;6.47;;;3.17;;
30571;SDS011;17348;50.948;10.696;2022-09-21T07:07:25;5.97;;;2.87;;
30571;SDS011;17348;50.948;10.696;2022-09-21T07:10:31;11.63;;;3.67;;
30571;SDS011;17348;50.948;10.696;2022-09-21T07:13:33;9.97;;;4.10;;
30571;SDS011;17348;50.948;10.696;2022-09-21T07:16:35;6.53;;;2.77;;
30571;SDS011;17348;50.948;10.696;2022-09-21T07:19:38;4.90;;;2.30;;
30571;SDS011;17348;50.948;10.696;2022-09-21T07:22:40;4.43;;;2.00;;
30571;SDS011;17348;50.948;10.696;2022-09-21T07:25:43;5.27;;;2.10;;
30571;SDS011;17348;50.948;10.696;2022-09-21T07:28:48;2.70;;;1.67;;
30571;SDS011;17348;50.948;10.696;2022-09-21T07:31:50;5.53;;;2.70;;
30571;SDS011;17348;50.948;10.696;2022-09-21T07:34:52;4.53;;;2.43;;
30571;SDS011;17348;50.948;10.696;2022-09-21T07:37:56;6.30;;;2.20;;
30571;SDS011;17348;50.948;10.696;2022-09-21T07:41:01;6.63;;;2.13;;
30571;SDS011;17348;50.948;10.696;2022-09-21T07:44:03;4.60;;;2.37;;
30571;SDS011;17348;50.948;10.696;2022-09-21T07:47:06;3.67;;;2.20;;
30571;SDS011;17348;50.948;10.696;2022-09-21T07:50:08;3.73;;;1.80;;
30571;SDS011;17348;50.948;10.696;2022-09-21T07:53:11;5.17;;;2.53;;
30571;SDS011;17348;50.948;10.696;2022-09-21T07:56:16;3.67;;;2.13;;
30571;SDS011;17348;50.948;10.696;2022-09-21T07:59:19;9.80;;;2.37;;
30571;SDS011;17348;50.948;10.696;2022-09-21T08:02:21;3.72;;;2.60;;
30571;SDS011;17348;50.948;10.696;2022-09-21T08:05:23;8.63;;;2.78;;
30571;SDS011;17348;50.948;10.696;2022-09-21T08:08:28;5.30;;;2.70;;
30571;SDS011;17348;50.948;10.696;2022-09-21T08:11:32;4.85;;;3.15;;
30571;SDS011;17348;50.948;10.696;2022-09-21T08:14:35;4.78;;;2.53;;
30571;SDS011;17348;50.948;10.696;2022-09-21T08:17:37;7.15;;;3.38;;
30571;SDS011;17348;50.948;10.696;2022-09-21T08:20:39;6.03;;;3.03;;
30571;SDS011;17348;50.948;10.696;2022-09-21T08:23:42;5.60;;;2.97;;
30571;SDS011;17348;50.948;10.696;2022-09-21T08:26:46;6.35;;;3.13;;
30571;SDS011;17348;50.948;10.696;2022-09-21T08:29:51;5.20;;;2.65;;
30571;SDS011;17348;50.948;10.696;2022-09-21T08:32:53;4.40;;;2.83;;
30571;SDS011;17348;50.948;10.696;2022-09-21T08:35:57;8.05;;;3.70;;
30571;SDS011;17348;50.948;10.696;2022-09-21T08:39:00;7.30;;;2.60;;
30571;SDS011;17348;50.948;10.696;2022-09-21T08:42:07;6.25;;;2.95;;
30571;SDS011;17348;50.948;10.696;2022-09-21T08:45:16;6.15;;;3.50;;
30571;SDS011;17348;50.948;10.696;2022-09-21T08:48:21;9.20;;;3.45;;
30571;SDS011;17348;50.948;10.696;2022-09-21T08:51:27;5.38;;;2.90;;
30571;SDS011;17348;50.948;10.696;2022-09-21T08:54:36;9.60;;;4.03;;
30571;SDS011;17348;50.948;10.696;2022-09-21T08:57:44;6.30;;;3.90;;
30571;SDS011;17348;50.948;10.696;2022-09-21T09:00:46;9.75;;;3.17;;
30571;SDS011;17348;50.948;10.696;2022-09-21T09:03:52;5.47;;;3.35;;
30571;SDS011;17348;50.948;10.696;2022-09-21T09:07:15;12.93;;;3.77;;
30571;SDS011;17348;50.948;10.696;2022-09-21T09:10:33;11.85;;;4.03;;
30571;SDS011;17348;50.948;10.696;2022-09-21T09:13:47;7.30;;;2.88;;
30571;SDS011;17348;50.948;10.696;2022-09-21T09:20:12;6.93;;;3.28;;
30571;SDS011;17348;50.948;10.696;2022-09-21T09:23:17;8.10;;;3.30;;
30571;SDS011;17348;50.948;10.696;2022-09-21T09:26:23;10.40;;;3.40;;
30571;SDS011;17348;50.948;10.696;2022-09-21T09:29:32;7.50;;;4.40;;
30571;SDS011;17348;50.948;10.696;2022-09-21T09:32:43;7.65;;;3.70;;
30571;SDS011;17348;50.948;10.696;2022-09-21T09:35:54;9.68;;;4.45;;
30571;SDS011;17348;50.948;10.696;2022-09-21T09:39:03;11.55;;;4.82;;
30571;SDS011;17348;50.948;10.696;2022-09-21T09:42:17;10.23;;;3.97;;
30571;SDS011;17348;50.948;10.696;2022-09-21T09:45:35;9.18;;;3.63;;
30571;SDS011;17348;50.948;10.696;2022-09-21T09:48:48;7.57;;;3.30;;
30571;SDS011;17348;50.948;10.696;2022-09-21T09:51:59;5.88;;;2.58;;
30571;SDS011;17348;50.948;10.696;2022-09-21T09:55:09;5.60;;;3.05;;
30571;SDS011;17348;50.948;10.696;2022-09-21T09:58:17;9.60;;;1.85;;
30571;SDS011;17348;50.948;10.696;2022-09-21T10:01:38;3.50;;;1.17;;
30571;SDS011;17348;50.948;10.696;2022-09-21T10:07:54;6.40;;;1.83;;
30571;SDS011;17348;50.948;10.696;2022-09-21T10:10:57;2.45;;;1.25;;
30571;SDS011;17348;50.948;10.696;2022-09-21T10:14:05;3.53;;;1.90;;
30571;SDS011;17348;50.948;10.696;2022-09-21T10:17:11;4.70;;;1.63;;
30571;SDS011;17348;50.948;10.696;2022-09-21T10:20:17;6.10;;;1.75;;
30571;SDS011;17348;50.948;10.696;2022-09-21T10:23:19;4.90;;;1.25;;
30571;SDS011;17348;50.948;10.696;2022-09-21T10:26:22;10.18;;;2.35;;
30571;SDS011;17348;50.948;10.696;2022-09-21T10:29:29;4.03;;;2.35;;
30571;SDS011;17348;50.948;10.696;2022-09-21T10:32:35;6.43;;;1.80;;
30571;SDS011;17348;50.948;10.696;2022-09-21T10:35:37;2.47;;;1.58;;
30571;SDS011;17348;50.948;10.696;2022-09-21T10:38:50;4.45;;;2.10;;
30571;SDS011;17348;50.948;10.696;2022-09-21T10:41:55;8.00;;;2.70;;
30571;SDS011;17348;50.948;10.696;2022-09-21T10:45:05;7.13;;;2.20;;
30571;SDS011;17348;50.948;10.696;2022-09-21T10:48:15;3.22;;;1.63;;
30571;SDS011;17348;50.948;10.696;2022-09-21T10:51:24;4.47;;;1.13;;
30571;SDS011;17348;50.948;10.696;2022-09-21T10:54:30;3.30;;;1.00;;
30571;SDS011;17348;50.948;10.696;2022-09-21T10:57:34;5.20;;;1.00;;
30571;SDS011;17348;50.948;10.696;2022-09-21T11:00:39;4.45;;;1.25;;
30571;SDS011;17348;50.948;10.696;2022-09-21T11:03:47;6.07;;;1.40;;
30571;SDS011;17348;50.948;10.696;2022-09-21T11:10:00;4.68;;;1.48;;
30571;SDS011;17348;50.948;10.696;2022-09-21T11:13:16;5.45;;;1.50;;
30571;SDS011;17348;50.948;10.696;2022-09-21T11:16:27;8.60;;;1.20;;
30571;SDS011;17348;50.948;10.696;2022-09-21T11:19:37;1.85;;;0.80;;
30571;SDS011;17348;50.948;10.696;2022-09-21T11:22:47;3.30;;;0.63;;
30571;SDS011;17348;50.948;10.696;2022-09-21T11:25:59;9.77;;;1.00;;
30571;SDS011;17348;50.948;10.696;2022-09-21T11:29:07;4.15;;;0.73;;
30571;SDS011;17348;50.948;10.696;2022-09-21T11:32:25;3.45;;;0.75;;
30571;SDS011;17348;50.948;10.696;2022-09-21T11:35:48;2.17;;;1.15;;
30571;SDS011;17348;50.948;10.696;2022-09-21T11:39:00;8.05;;;1.10;;
30571;SDS011;17348;50.948;10.696;2022-09-21T11:42:19;4.90;;;1.40;;
30571;SDS011;17348;50.948;10.696;2022-09-21T11:45:41;3.42;;;1.20;;
30571;SDS011;17348;50.948;10.696;2022-09-21T11:48:55;4.57;;;0.98;;
30571;SDS011;17348;50.948;10.696;2022-09-21T11:52:13;8.30;;;1.42;;
30571;SDS011;17348;50.948;10.696;2022-09-21T11:55:30;4.20;;;0.95;;
30571;SDS011;17348;50.948;10.696;2022-09-21T11:58:50;2.28;;;1.05;;
30571;SDS011;17348;50.948;10.696;2022-09-21T12:02:08;4.13;;;0.57;;
30571;SDS011;17348;50.948;10.696;2022-09-21T12:05:28;3.15;;;0.55;;
30571;SDS011;17348;50.948;10.696;2022-09-21T12:08:39;3.42;;;1.00;;
30571;SDS011;17348;50.948;10.696;2022-09-21T12:11:54;2.40;;;0.60;;
30571;SDS011;17348;50.948;10.696;2022-09-21T12:15:07;8.80;;;0.80;;
30571;SDS011;17348;50.948;10.696;2022-09-21T12:18:16;4.68;;;1.02;;
30571;SDS011;17348;50.948;10.696;2022-09-21T12:21:26;7.22;;;0.60;;
30571;SDS011;17348;50.948;10.696;2022-09-21T12:24:33;2.40;;;0.55;;
30571;SDS011;17348;50.948;10.696;2022-09-21T12:27:40;2.58;;;0.68;;
30571;SDS011;17348;50.948;10.696;2022-09-21T12:30:48;1.38;;;0.60;;
30571;SDS011;17348;50.948;10.696;2022-09-21T12:33:55;4.45;;;0.70;;
30571;SDS011;17348;50.948;10.696;2022-09-21T12:37:03;3.05;;;0.52;;
30571;SDS011;17348;50.948;10.696;2022-09-21T12:40:14;2.13;;;0.50;;
30571;SDS011;17348;50.948;10.696;2022-09-21T12:43:37;0.90;;;0.45;;
30571;SDS011;17348;50.948;10.696;2022-09-21T12:46:45;1.13;;;0.65;;
30571;SDS011;17348;50.948;10.696;2022-09-21T12:49:52;3.72;;;0.68;;
30571;SDS011;17348;50.948;10.696;2022-09-21T12:53:00;1.42;;;0.55;;
30571;SDS011;17348;50.948;10.696;2022-09-21T12:56:05;3.53;;;0.70;;
30571;SDS011;17348;50.948;10.696;2022-09-21T12:59:17;4.85;;;0.77;;
30571;SDS011;17348;50.948;10.696;2022-09-21T13:02:28;4.57;;;0.73;;
30571;SDS011;17348;50.948;10.696;2022-09-21T13:05:35;5.07;;;0.82;;
30571;SDS011;17348;50.948;10.696;2022-09-21T13:08:42;4.15;;;1.08;;
30571;SDS011;17348;50.948;10.696;2022-09-21T13:11:50;3.63;;;0.77;;
30571;SDS011;17348;50.948;10.696;2022-09-21T13:14:58;1.20;;;0.45;;
30571;SDS011;17348;50.948;10.696;2022-09-21T13:18:03;9.88;;;1.20;;
30571;SDS011;17348;50.948;10.696;2022-09-21T13:21:14;9.07;;;0.80;;
30571;SDS011;17348;50.948;10.696;2022-09-21T13:24:22;2.92;;;0.73;;
30571;SDS011;17348;50.948;10.696;2022-09-21T13:34:36;3.38;;;1.25;;
30571;SDS011;17348;50.948;10.696;2022-09-21T13:37:39;1.45;;;0.50;;
30571;SDS011;17348;50.948;10.696;2022-09-21T13:40:48;4.85;;;0.70;;
30571;SDS011;17348;50.948;10.696;2022-09-21T13:44:01;3.13;;;0.65;;
30571;SDS011;17348;50.948;10.696;2022-09-21T13:47:05;5.95;;;0.93;;
30571;SDS011;17348;50.948;10.696;2022-09-21T13:50:11;7.63;;;1.63;;
30571;SDS011;17348;50.948;10.696;2022-09-21T13:53:22;1.42;;;0.80;;
30571;SDS011;17348;50.948;10.696;2022-09-21T13:56:27;7.30;;;1.05;;
30571;SDS011;17348;50.948;10.696;2022-09-21T13:59:34;3.17;;;0.70;;
30571;SDS011;17348;50.948;10.696;2022-09-21T14:02:39;1.50;;;0.70;;
30571;SDS011;17348;50.948;10.696;2022-09-21T14:05:44;5.95;;;1.02;;
30571;SDS011;17348;50.948;10.696;2022-09-21T14:08:50;4.30;;;0.65;;
30571;SDS011;17348;50.948;10.696;2022-09-21T14:11:57;1.80;;;0.47;;
30571;SDS011;17348;50.948;10.696;2022-09-21T14:18:36;3.58;;;0.77;;
30571;SDS011;17348;50.948;10.696;2022-09-21T14:21:39;2.53;;;0.45;;
30571;SDS011;17348;50.948;10.696;2022-09-21T14:28:32;1.90;;;0.77;;
30571;SDS011;17348;50.948;10.696;2022-09-21T14:31:43;3.67;;;0.60;;
30571;SDS011;17348;50.948;10.696;2022-09-21T14:34:47;1.10;;;0.40;;
30571;SDS011;17348;50.948;10.696;2022-09-21T14:37:51;0.50;;;0.50;;
30571;SDS011;17348;50.948;10.696;2022-09-21T14:40:58;4.20;;;0.63;;
30571;SDS011;17348;50.948;10.696;2022-09-21T14:44:03;2.60;;;0.70;;
30571;SDS011;17348;50.948;10.696;2022-09-21T14:47:18;2.33;;;0.80;;
30571;SDS011;17348;50.948;10.696;2022-09-21T14:50:44;3.70;;;1.00;;
30571;SDS011;17348;50.948;10.696;2022-09-21T14:57:25;2.88;;;1.00;;
30571;SDS011;17348;50.948;10.696;2022-09-21T15:00:37;6.40;;;0.70;;
30571;SDS011;17348;50.948;10.696;2022-09-21T15:03:47;3.10;;;1.02;;
30571;SDS011;17348;50.948;10.696;2022-09-21T15:07:08;3.70;;;0.65;;
30571;SDS011;17348;50.948;10.696;2022-09-21T15:10:55;3.58;;;0.73;;
30571;SDS011;17348;50.948;10.696;2022-09-21T15:14:10;4.75;;;0.68;;
30571;SDS011;17348;50.948;10.696;2022-09-21T15:17:21;2.15;;;0.90;;
30571;SDS011;17348;50.948;10.696;2022-09-21T15:20:27;4.90;;;0.90;;
30571;SDS011;17348;50.948;10.696;2022-09-21T15:23:32;2.92;;;0.80;;
30571;SDS011;17348;50.948;10.696;2022-09-21T15:26:38;1.85;;;0.50;;
30571;SDS011;17348;50.948;10.696;2022-09-21T15:29:42;5.55;;;0.90;;
30571;SDS011;17348;50.948;10.696;2022-09-21T15:32:50;6.35;;;0.70;;
30571;SDS011;17348;50.948;10.696;2022-09-21T15:35:55;1.30;;;0.63;;
30571;SDS011;17348;50.948;10.696;2022-09-21T15:39:02;5.60;;;0.63;;
30571;SDS011;17348;50.948;10.696;2022-09-21T15:42:15;3.35;;;0.77;;
30571;SDS011;17348;50.948;10.696;2022-09-21T15:45:22;2.90;;;0.43;;
30571;SDS011;17348;50.948;10.696;2022-09-21T15:48:27;5.65;;;0.60;;
30571;SDS011;17348;50.948;10.696;2022-09-21T15:51:34;2.55;;;0.68;;
30571;SDS011;17348;50.948;10.696;2022-09-21T15:54:40;4.28;;;0.57;;
30571;SDS011;17348;50.948;10.696;2022-09-21T15:57:45;3.05;;;0.60;;
30571;SDS011;17348;50.948;10.696;2022-09-21T16:00:49;1.25;;;0.60;;
30571;SDS011;17348;50.948;10.696;2022-09-21T16:04:00;8.18;;;0.68;;
30571;SDS011;17348;50.948;10.696;2022-09-21T16:07:09;2.30;;;0.63;;
30571;SDS011;17348;50.948;10.696;2022-09-21T16:13:36;2.08;;;0.77;;
30571;SDS011;17348;50.948;10.696;2022-09-21T16:17:05;1.42;;;0.80;;
30571;SDS011;17348;50.948;10.696;2022-09-21T16:20:21;0.52;;;0.40;;
30571;SDS011;17348;50.948;10.696;2022-09-21T16:23:26;10.77;;;1.33;;
30571;SDS011;17348;50.948;10.696;2022-09-21T16:26:33;5.82;;;1.10;;
30571;SDS011;17348;50.948;10.696;2022-09-21T16:29:37;5.38;;;0.90;;
30571;SDS011;17348;50.948;10.696;2022-09-21T16:32:42;3.65;;;0.80;;
30571;SDS011;17348;50.948;10.696;2022-09-21T16:35:48;4.90;;;0.95;;
30571;SDS011;17348;50.948;10.696;2022-09-21T16:38:52;6.70;;;0.75;;
30571;SDS011;17348;50.948;10.696;2022-09-21T16:41:55;3.10;;;0.90;;
30571;SDS011;17348;50.948;10.696;2022-09-21T16:44:59;6.68;;;1.35;;
30571;SDS011;17348;50.948;10.696;2022-09-21T16:51:13;6.57;;;1.30;;
30571;SDS011;17348;50.948;10.696;2022-09-21T16:54:25;4.28;;;0.95;;
30571;SDS011;17348;50.948;10.696;2022-09-21T16:57:28;2.95;;;1.20;;
30571;SDS011;17348;50.948;10.696;2022-09-21T17:00:34;3.78;;;1.25;;
30571;SDS011;17348;50.948;10.696;2022-09-21T17:03:40;2.72;;;1.30;;
30571;SDS011;17348;50.948;10.696;2022-09-21T17:06:43;5.68;;;2.25;;
30571;SDS011;17348;50.948;10.696;2022-09-21T17:09:47;3.90;;;2.03;;
30571;SDS011;17348;50.948;10.696;2022-09-21T17:12:50;5.57;;;2.53;;
30571;SDS011;17348;50.948;10.696;2022-09-21T17:15:53;5.47;;;2.70;;
30571;SDS011;17348;50.948;10.696;2022-09-21T17:18:59;10.15;;;3.20;;
30571;SDS011;17348;50.948;10.696;2022-09-21T17:22:03;13.98;;;5.18;;
30571;SDS011;17348;50.948;10.696;2022-09-21T17:25:08;26.25;;;6.68;;
30571;SDS011;17348;50.948;10.696;2022-09-21T17:28:11;18.88;;;7.10;;
30571;SDS011;17348;50.948;10.696;2022-09-21T17:31:25;21.15;;;9.85;;
30571;SDS011;17348;50.948;10.696;2022-09-21T17:34:31;24.40;;;9.77;;
30571;SDS011;17348;50.948;10.696;2022-09-21T17:37:34;21.73;;;9.82;;
30571;SDS011;17348;50.948;10.696;2022-09-21T17:40:39;24.45;;;9.02;;
30571;SDS011;17348;50.948;10.696;2022-09-21T17:43:47;23.55;;;8.73;;
30571;SDS011;17348;50.948;10.696;2022-09-21T17:46:56;18.15;;;8.50;;
30571;SDS011;17348;50.948;10.696;2022-09-21T17:50:07;19.35;;;7.72;;
30571;SDS011;17348;50.948;10.696;2022-09-21T17:53:19;16.02;;;8.35;;
30571;SDS011;17348;50.948;10.696;2022-09-21T17:56:43;20.55;;;8.80;;
30571;SDS011;17348;50.948;10.696;2022-09-21T17:59:49;15.23;;;7.53;;
30571;SDS011;17348;50.948;10.696;2022-09-21T18:02:59;19.60;;;10.93;;
30571;SDS011;17348;50.948;10.696;2022-09-21T18:06:02;15.35;;;8.40;;
30571;SDS011;17348;50.948;10.696;2022-09-21T18:09:05;17.80;;;7.90;;
30571;SDS011;17348;50.948;10.696;2022-09-21T18:15:39;16.80;;;6.68;;
30571;SDS011;17348;50.948;10.696;2022-09-21T18:18:52;15.00;;;6.63;;
30571;SDS011;17348;50.948;10.696;2022-09-21T18:22:09;12.88;;;6.78;;
30571;SDS011;17348;50.948;10.696;2022-09-21T18:25:20;10.18;;;6.10;;
30571;SDS011;17348;50.948;10.696;2022-09-21T18:28:34;23.63;;;6.45;;
30571;SDS011;17348;50.948;10.696;2022-09-21T18:31:42;21.70;;;6.78;;
30571;SDS011;17348;50.948;10.696;2022-09-21T18:35:09;16.77;;;6.68;;
30571;SDS011;17348;50.948;10.696;2022-09-21T18:38:20;15.27;;;6.35;;
30571;SDS011;17348;50.948;10.696;2022-09-21T18:41:29;12.82;;;6.05;;
30571;SDS011;17348;50.948;10.696;2022-09-21T18:44:39;17.55;;;7.03;;
30571;SDS011;17348;50.948;10.696;2022-09-21T18:48:01;24.20;;;8.75;;
30571;SDS011;17348;50.948;10.696;2022-09-21T18:51:20;73.28;;;19.65;;
30571;SDS011;17348;50.948;10.696;2022-09-21T18:54:28;69.70;;;22.27;;
30571;SDS011;17348;50.948;10.696;2022-09-21T18:57:31;51.03;;;16.67;;
30571;SDS011;17348;50.948;10.696;2022-09-21T19:00:35;51.90;;;17.50;;
30571;SDS011;17348;50.948;10.696;2022-09-21T19:03:38;42.65;;;16.52;;